createdAt,value
2023-01-28T00:00:32.562Z,0.60
2023-01-28T00:02:59.172Z,0.60
2023-01-28T00:05:25.755Z,0.70
2023-01-28T00:07:52.240Z,0.70
2023-01-28T00:10:18.782Z,0.70
2023-01-28T00:12:45.348Z,0.70
2023-01-28T00:15:12.394Z,0.70
2023-01-28T00:17:39.045Z,0.70
2023-01-28T00:20:05.521Z,0.80
2023-01-28T00:22:32.024Z,0.70
2023-01-28T00:24:58.555Z,0.80
2023-01-28T00:27:25.096Z,0.80
2023-01-28T00:29:51.580Z,0.80
2023-01-28T00:32:18.058Z,0.80
2023-01-28T00:34:44.527Z,0.80
2023-01-28T00:37:11.065Z,0.80
2023-01-28T00:39:37.595Z,0.80
2023-01-28T00:42:04.078Z,0.80
2023-01-28T00:44:30.543Z,0.90
2023-01-28T00:46:57.271Z,0.90
2023-01-28T00:49:23.812Z,0.80
2023-01-28T00:51:50.317Z,0.80
2023-01-28T00:54:16.882Z,0.80
2023-01-28T00:56:43.415Z,0.80
2023-01-28T00:59:09.910Z,0.80
2023-01-28T01:01:36.543Z,0.70
2023-01-28T01:04:03.361Z,0.70
2023-01-28T01:06:29.963Z,0.70
2023-01-28T01:08:56.478Z,0.60
2023-01-28T01:11:22.950Z,0.60
2023-01-28T01:13:49.460Z,0.60
2023-01-28T01:16:19.053Z,0.60
2023-01-28T01:18:45.539Z,0.60
2023-01-28T01:21:12.143Z,0.60
2023-01-28T01:23:38.631Z,0.60
2023-01-28T01:26:05.149Z,0.60
2023-01-28T01:28:31.637Z,0.60
2023-01-28T01:30:58.195Z,0.60
2023-01-28T01:33:24.700Z,0.60
2023-01-28T01:35:51.382Z,0.60
2023-01-28T01:38:17.917Z,0.60
2023-01-28T01:40:44.415Z,0.60
2023-01-28T01:43:10.926Z,0.60
2023-01-28T01:45:37.412Z,0.70
2023-01-28T01:48:03.931Z,0.60
2023-01-28T01:50:30.468Z,0.50
2023-01-28T01:52:57.054Z,0.50
2023-01-28T01:55:23.553Z,0.60
2023-01-28T01:57:50.116Z,0.60
2023-01-28T02:00:16.603Z,0.60
2023-01-28T02:02:43.140Z,0.60
2023-01-28T02:05:09.760Z,0.60
2023-01-28T02:07:36.312Z,0.60
2023-01-28T02:10:02.801Z,0.60
2023-01-28T02:12:29.360Z,0.60
2023-01-28T02:14:55.876Z,0.60
2023-01-28T02:17:22.420Z,0.60
2023-01-28T02:19:48.890Z,0.60
2023-01-28T02:22:16.432Z,0.50
2023-01-28T02:24:43.076Z,0.50
2023-01-28T02:27:09.613Z,0.50
2023-01-28T02:29:36.093Z,0.50
2023-01-28T02:32:02.633Z,0.50
2023-01-28T02:34:29.104Z,0.50
2023-01-28T02:36:55.568Z,0.50
2023-01-28T02:39:22.105Z,0.50
2023-01-28T02:41:48.589Z,0.50
2023-01-28T02:44:15.089Z,0.50
2023-01-28T02:47:00.439Z,0.50
2023-01-28T02:49:27.158Z,0.50
2023-01-28T02:51:54.138Z,0.40
2023-01-28T02:54:20.636Z,0.30
2023-01-28T02:56:47.218Z,0.40
2023-01-28T02:59:32.220Z,0.30
2023-01-28T03:01:58.810Z,0.40
2023-01-28T03:04:25.308Z,0.40
2023-01-28T03:06:51.816Z,0.40
2023-01-28T03:09:26.729Z,0.40
2023-01-28T03:12:12.226Z,0.50
2023-01-28T03:14:57.507Z,0.50
2023-01-28T03:17:42.928Z,0.40
2023-01-28T03:20:28.034Z,0.30
2023-01-28T03:23:13.154Z,0.30
2023-01-28T03:25:58.601Z,0.20
2023-01-28T03:28:43.682Z,0.20
2023-01-28T03:31:28.809Z,0.20
2023-01-28T03:34:13.845Z,0.20
2023-01-28T03:36:55.785Z,0.20
2023-01-28T03:39:22.284Z,0.10
2023-01-28T03:41:48.777Z,0.10
2023-01-28T03:44:34.136Z,0.10
2023-01-28T03:47:00.688Z,0.10
2023-01-28T03:49:27.179Z,0.20
2023-01-28T03:51:53.680Z,0.20
2023-01-28T03:54:20.295Z,0.20
2023-01-28T03:56:46.850Z,0.10
2023-01-28T03:59:13.414Z,0.10
2023-01-28T04:01:39.918Z,0.10
2023-01-28T04:04:06.451Z,0.10
2023-01-28T04:06:32.923Z,0.10
2023-01-28T04:08:59.704Z,0.10
2023-01-28T04:11:26.373Z,0.00
2023-01-28T04:13:53.080Z,0.00
2023-01-28T04:16:20.255Z,-0.10
2023-01-28T04:18:46.883Z,-0.20
2023-01-28T04:21:13.482Z,-0.10
2023-01-28T04:23:40.025Z,-0.10
2023-01-28T04:26:06.632Z,-0.10
2023-01-28T04:28:33.139Z,-0.10
2023-01-28T04:30:59.687Z,-0.10
2023-01-28T04:33:26.235Z,-0.10
2023-01-28T04:35:52.788Z,-0.10
2023-01-28T04:38:19.330Z,-0.10
2023-01-28T04:40:45.803Z,-0.10
2023-01-28T04:43:12.291Z,-0.10
2023-01-28T04:45:38.761Z,-0.10
2023-01-28T04:48:05.297Z,-0.10
2023-01-28T04:50:31.773Z,-0.10
2023-01-28T04:52:58.270Z,-0.10
2023-01-28T04:55:24.745Z,-0.10
2023-01-28T04:57:51.265Z,-0.10
2023-01-28T05:00:17.788Z,-0.10
2023-01-28T05:02:44.262Z,-0.10
2023-01-28T05:05:10.835Z,-0.20
2023-01-28T05:07:37.339Z,-0.20
2023-01-28T05:10:04.022Z,-0.20
2023-01-28T05:12:32.872Z,-0.20
2023-01-28T05:15:00.543Z,-0.20
2023-01-28T05:17:27.066Z,-0.20
2023-01-28T05:19:53.583Z,-0.10
2023-01-28T05:22:20.057Z,-0.10
2023-01-28T05:24:46.596Z,0.00
2023-01-28T05:27:13.094Z,0.00
2023-01-28T05:29:39.579Z,0.00
2023-01-28T05:32:06.099Z,0.00
2023-01-28T05:34:32.616Z,0.00
2023-01-28T05:36:59.145Z,0.00
2023-01-28T05:39:25.729Z,0.00
2023-01-28T05:41:52.255Z,-0.10
2023-01-28T05:44:18.747Z,-0.10
2023-01-28T05:46:46.564Z,-0.10
2023-01-28T05:49:13.552Z,-0.20
2023-01-28T05:51:40.066Z,-0.20
2023-01-28T05:54:06.563Z,-0.30
2023-01-28T05:56:33.728Z,-0.30
2023-01-28T05:59:00.205Z,-0.40
2023-01-28T06:01:26.736Z,-0.40
2023-01-28T06:03:53.215Z,-0.40
2023-01-28T06:06:19.701Z,-0.40
2023-01-28T06:08:46.214Z,-0.40
2023-01-28T06:11:12.704Z,-0.50
2023-01-28T06:13:41.503Z,-0.40
2023-01-28T06:16:08.157Z,-0.50
2023-01-28T06:18:34.796Z,-0.50
2023-01-28T06:21:01.296Z,-0.40
2023-01-28T06:23:27.765Z,-0.40
2023-01-28T06:25:54.711Z,-0.40
2023-01-28T06:28:21.343Z,-0.40
2023-01-28T06:30:47.968Z,-0.30
2023-01-28T06:33:14.484Z,-0.30
2023-01-28T06:35:40.978Z,-0.30
2023-01-28T06:38:07.530Z,-0.30
2023-01-28T06:40:34.033Z,-0.30
2023-01-28T06:43:00.519Z,-0.30
2023-01-28T06:45:27.010Z,-0.30
2023-01-28T06:47:53.505Z,-0.40
2023-01-28T06:50:20.040Z,-0.40
2023-01-28T06:52:46.519Z,-0.30
2023-01-28T06:55:13.041Z,-0.30
2023-01-28T06:57:39.585Z,-0.40
2023-01-28T07:00:06.411Z,-0.40
2023-01-28T07:02:33.008Z,-0.40
2023-01-28T07:04:59.638Z,-0.40
2023-01-28T07:07:26.126Z,-0.40
2023-01-28T07:09:52.615Z,-0.40
2023-01-28T07:12:19.103Z,-0.40
2023-01-28T07:14:45.715Z,-0.30
2023-01-28T07:17:12.339Z,-0.30
2023-01-28T07:19:38.852Z,-0.30
2023-01-28T07:22:05.379Z,-0.30
2023-01-28T07:24:31.918Z,-0.30
2023-01-28T07:26:58.504Z,-0.30
2023-01-28T07:29:25.014Z,-0.30
2023-01-28T07:31:51.561Z,-0.30
2023-01-28T07:34:18.058Z,-0.30
2023-01-28T07:36:44.577Z,-0.30
2023-01-28T07:39:11.128Z,-0.30
2023-01-28T07:41:37.639Z,-0.30
2023-01-28T07:44:04.124Z,-0.30
2023-01-28T07:46:30.665Z,-0.30
2023-01-28T07:48:57.149Z,-0.30
2023-01-28T07:51:23.667Z,-0.30
2023-01-28T07:53:50.165Z,-0.30
2023-01-28T07:56:16.722Z,-0.40
2023-01-28T07:58:43.336Z,-0.40
2023-01-28T08:01:09.891Z,-0.40
2023-01-28T08:03:36.507Z,-0.30
2023-01-28T08:06:03.048Z,-0.30
2023-01-28T08:08:29.599Z,-0.40
2023-01-28T08:10:56.272Z,-0.50
2023-01-28T08:13:22.749Z,-0.50
2023-01-28T08:15:49.326Z,-0.50
2023-01-28T08:18:15.901Z,-0.50
2023-01-28T08:20:43.481Z,-0.50
2023-01-28T08:23:10.052Z,-0.50
2023-01-28T08:25:36.591Z,-0.50
2023-01-28T08:28:03.092Z,-0.50
2023-01-28T08:30:29.619Z,-0.40
2023-01-28T08:32:56.179Z,-0.40
2023-01-28T08:35:22.671Z,-0.40
2023-01-28T08:37:49.160Z,-0.30
2023-01-28T08:40:16.572Z,-0.40
2023-01-28T08:42:43.296Z,-0.50
2023-01-28T08:45:09.891Z,-0.50
2023-01-28T08:47:36.385Z,-0.40
2023-01-28T08:50:02.880Z,-0.40
2023-01-28T08:52:29.405Z,-0.30
2023-01-28T08:54:55.877Z,-0.30
2023-01-28T08:57:22.372Z,-0.20
2023-01-28T08:59:48.875Z,-0.30
2023-01-28T09:02:30.201Z,-0.30
2023-01-28T09:04:57.487Z,-0.20
2023-01-28T09:07:23.987Z,-0.20
2023-01-28T09:09:50.444Z,-0.20
2023-01-28T09:12:17.158Z,-0.10
2023-01-28T09:14:43.642Z,-0.10
2023-01-28T09:17:10.176Z,0.00
2023-01-28T09:19:36.674Z,0.00
2023-01-28T09:22:03.168Z,-0.10
2023-01-28T09:24:29.796Z,-0.20
2023-01-28T09:26:56.396Z,-0.20
2023-01-28T09:29:23.079Z,-0.20
2023-01-28T09:31:49.618Z,-0.30
2023-01-28T09:34:16.130Z,-0.30
2023-01-28T09:36:42.641Z,-0.30
2023-01-28T09:39:09.126Z,-0.20
2023-01-28T09:41:35.672Z,-0.20
2023-01-28T09:44:02.222Z,-0.20
2023-01-28T09:46:29.206Z,-0.20
2023-01-28T09:48:55.745Z,-0.20
2023-01-28T09:51:22.209Z,-0.20
2023-01-28T09:53:50.066Z,-0.20
2023-01-28T09:56:16.967Z,-0.10
2023-01-28T09:58:43.529Z,-0.10
2023-01-28T10:01:10.078Z,-0.10
2023-01-28T10:03:36.716Z,0.00
2023-01-28T10:06:03.344Z,0.00
2023-01-28T10:08:29.850Z,0.00
2023-01-28T10:10:56.350Z,0.00
2023-01-28T10:13:22.844Z,0.00
2023-01-28T10:15:49.325Z,0.00
2023-01-28T10:18:18.265Z,0.00
2023-01-28T10:20:45.031Z,0.10
2023-01-28T10:23:11.527Z,0.10
2023-01-28T10:25:39.141Z,0.00
2023-01-28T10:28:05.646Z,0.10
2023-01-28T10:30:32.183Z,0.10
2023-01-28T10:32:58.869Z,0.20
2023-01-28T10:35:25.490Z,0.20
2023-01-28T10:37:52.056Z,0.20
2023-01-28T10:40:18.610Z,0.20
2023-01-28T10:42:45.122Z,0.20
2023-01-28T10:45:11.603Z,0.20
2023-01-28T10:47:38.135Z,0.30
2023-01-28T10:50:04.613Z,0.30
2023-01-28T10:52:31.141Z,0.30
2023-01-28T10:54:57.640Z,0.30
2023-01-28T10:57:24.157Z,0.10
2023-01-28T10:59:50.830Z,0.10
2023-01-28T11:02:17.399Z,0.10
2023-01-28T11:04:43.897Z,0.00
2023-01-28T11:07:10.411Z,0.10
2023-01-28T11:09:36.919Z,0.10
2023-01-28T11:12:03.508Z,0.10
2023-01-28T11:14:30.688Z,0.10
2023-01-28T11:16:57.229Z,0.10
2023-01-28T11:21:55.239Z,0.10
2023-01-28T11:24:21.852Z,0.10
2023-01-28T11:26:49.302Z,0.10
2023-01-28T11:29:15.794Z,0.10
2023-01-28T11:31:42.353Z,0.10
2023-01-28T11:34:08.874Z,0.20
2023-01-28T11:36:35.343Z,0.20
2023-01-28T11:39:01.867Z,0.30
2023-01-28T11:41:28.364Z,0.30
2023-01-28T11:43:55.344Z,0.30
2023-01-28T11:46:21.905Z,0.30
2023-01-28T11:48:48.531Z,0.30
2023-01-28T11:51:15.009Z,0.20
2023-01-28T11:53:41.547Z,0.20
2023-01-28T11:56:08.313Z,0.20
2023-01-28T11:58:34.833Z,0.20
2023-01-28T12:01:01.768Z,0.30
2023-01-28T12:03:28.300Z,0.20
2023-01-28T12:05:54.807Z,0.20
2023-01-28T12:08:23.053Z,0.20
2023-01-28T12:10:49.554Z,0.20
2023-01-28T12:13:16.044Z,0.10
2023-01-28T12:15:42.978Z,0.10
2023-01-28T12:18:09.505Z,0.10
2023-01-28T12:20:36.047Z,0.10
2023-01-28T12:23:02.925Z,0.10
2023-01-28T12:25:29.428Z,0.20
2023-01-28T12:27:56.011Z,0.20
2023-01-28T12:30:22.499Z,0.10
2023-01-28T12:32:49.012Z,0.10
2023-01-28T12:35:15.563Z,0.10
2023-01-28T12:37:42.060Z,0.20
2023-01-28T12:40:08.597Z,0.10
2023-01-28T12:42:35.089Z,0.10
2023-01-28T12:45:01.679Z,0.10
2023-01-28T12:47:28.187Z,0.20
2023-01-28T12:49:54.808Z,0.20
2023-01-28T12:52:23.948Z,0.20
2023-01-28T12:54:50.774Z,0.30
2023-01-28T12:57:17.308Z,0.20
2023-01-28T12:59:45.260Z,0.20
2023-01-28T13:02:11.812Z,0.20
2023-01-28T13:04:39.916Z,0.10
2023-01-28T13:07:06.583Z,0.10
2023-01-28T13:09:33.123Z,0.10
2023-01-28T13:11:59.689Z,0.10
2023-01-28T13:14:26.190Z,0.10
2023-01-28T13:16:52.705Z,0.10
2023-01-28T13:19:19.235Z,0.10
2023-01-28T13:21:49.315Z,0.30
2023-01-28T13:24:16.213Z,0.70
2023-01-28T13:26:43.627Z,0.70
2023-01-28T13:29:10.192Z,0.60
2023-01-28T13:31:36.666Z,0.50
2023-01-28T13:34:03.225Z,0.50
2023-01-28T13:36:29.737Z,0.50
2023-01-28T13:38:56.220Z,0.50
2023-01-28T13:41:22.737Z,0.40
2023-01-28T13:43:49.236Z,0.40
2023-01-28T13:46:15.847Z,0.40
2023-01-28T13:48:42.951Z,0.50
2023-01-28T13:51:09.427Z,0.60
2023-01-28T13:53:35.907Z,0.70
2023-01-28T13:56:02.408Z,0.60
2023-01-28T13:58:28.908Z,0.50
2023-01-28T14:00:55.402Z,0.50
2023-01-28T14:03:21.875Z,0.60
2023-01-28T14:05:48.371Z,0.60
2023-01-28T14:08:14.862Z,0.60
2023-01-28T14:10:41.373Z,0.60
2023-01-28T14:13:07.846Z,0.60
2023-01-28T14:15:34.475Z,0.60
2023-01-28T14:18:00.987Z,0.60
2023-01-28T14:20:27.652Z,0.60
2023-01-28T14:22:54.187Z,0.60
2023-01-28T14:25:20.654Z,0.50
2023-01-28T14:27:47.451Z,0.50
2023-01-28T14:30:13.986Z,0.50
2023-01-28T14:32:40.450Z,0.60
2023-01-28T14:35:07.010Z,0.60
2023-01-28T14:37:33.488Z,0.60
2023-01-28T14:39:59.960Z,0.60
2023-01-28T14:42:26.519Z,0.60
2023-01-28T14:44:53.017Z,0.60
2023-01-28T14:47:19.560Z,0.60
2023-01-28T14:49:46.062Z,0.50
2023-01-28T14:52:12.540Z,0.50
2023-01-28T14:54:39.125Z,0.50
2023-01-28T14:57:05.615Z,0.40
2023-01-28T14:59:32.157Z,0.20
2023-01-28T15:01:58.667Z,0.10
2023-01-28T15:04:25.193Z,-0.10
2023-01-28T15:06:51.651Z,-0.30
2023-01-28T15:09:18.152Z,-0.40
2023-01-28T15:11:44.784Z,-0.50
2023-01-28T15:14:11.632Z,-0.50
2023-01-28T15:16:38.121Z,-0.50
2023-01-28T15:19:04.624Z,-0.50
2023-01-28T15:21:31.195Z,-0.50
2023-01-28T15:23:57.857Z,-0.50
2023-01-28T15:26:24.394Z,-0.50
2023-01-28T15:28:50.935Z,-0.50
2023-01-28T15:31:17.474Z,-0.40
2023-01-28T15:33:44.149Z,-0.40
2023-01-28T15:36:10.663Z,-0.40
2023-01-28T15:38:37.135Z,-0.40
2023-01-28T15:41:03.599Z,-0.40
2023-01-28T15:43:30.130Z,-0.50
2023-01-28T15:45:56.693Z,-0.50
2023-01-28T15:48:23.250Z,-0.50
2023-01-28T15:50:49.775Z,-0.50
2023-01-28T15:53:16.364Z,-0.50
2023-01-28T15:55:42.895Z,-0.50
2023-01-28T15:58:09.393Z,-0.50
2023-01-28T16:00:35.907Z,-0.60
2023-01-28T16:03:02.517Z,-0.70
2023-01-28T16:05:29.107Z,-0.80
2023-01-28T16:07:55.793Z,-0.80
2023-01-28T16:10:22.356Z,-0.80
2023-01-28T16:12:51.850Z,-0.80
2023-01-28T16:15:19.620Z,-0.90
2023-01-28T16:17:46.276Z,-0.90
2023-01-28T16:20:12.873Z,-0.90
2023-01-28T16:22:39.395Z,-0.90
2023-01-28T16:25:05.899Z,-0.90
2023-01-28T16:27:32.552Z,-0.90
2023-01-28T16:29:59.141Z,-0.90
2023-01-28T16:32:25.677Z,-0.90
2023-01-28T16:34:52.163Z,-1.00
2023-01-28T16:37:18.943Z,-0.90
2023-01-28T16:39:45.414Z,-1.00
2023-01-28T16:42:11.894Z,-1.00
2023-01-28T16:44:38.413Z,-1.10
2023-01-28T16:47:04.994Z,-1.10
2023-01-28T16:49:31.597Z,-1.20
2023-01-28T16:51:58.242Z,-1.20
2023-01-28T16:54:24.757Z,-1.30
2023-01-28T16:56:51.365Z,-1.30
2023-01-28T16:59:17.947Z,-1.30
2023-01-28T17:01:44.514Z,-1.40
2023-01-28T17:04:12.877Z,-1.50
2023-01-28T17:06:41.898Z,-1.50
2023-01-28T17:09:08.399Z,-1.50
2023-01-28T17:11:34.946Z,-1.50
2023-01-28T17:14:01.456Z,-1.60
2023-01-28T17:16:28.003Z,-1.60
2023-01-28T17:18:54.515Z,-1.60
2023-01-28T17:21:21.041Z,-1.70
2023-01-28T17:23:47.508Z,-1.70
2023-01-28T17:26:14.019Z,-1.80
2023-01-28T17:28:40.519Z,-1.80
2023-01-28T17:31:07.190Z,-1.80
2023-01-28T17:33:33.752Z,-1.80
2023-01-28T17:36:00.302Z,-1.80
2023-01-28T17:38:26.772Z,-1.90
2023-01-28T17:40:53.245Z,-1.90
2023-01-28T17:43:19.771Z,-1.80
2023-01-28T17:45:46.904Z,-1.90
2023-01-28T17:48:13.398Z,-1.90
2023-01-28T17:50:40.078Z,-1.90
2023-01-28T17:53:06.551Z,-1.90
2023-01-28T17:55:33.017Z,-1.90
2023-01-28T17:57:59.566Z,-1.90
2023-01-28T18:00:26.872Z,-2.00
2023-01-28T18:02:53.386Z,-2.10
2023-01-28T18:05:19.942Z,-2.10
2023-01-28T18:07:46.476Z,-2.10
2023-01-28T18:10:13.351Z,-2.20
2023-01-28T18:12:39.849Z,-2.10
2023-01-28T18:15:06.334Z,-2.20
2023-01-28T18:17:32.840Z,-2.10
2023-01-28T18:19:59.358Z,-2.10
2023-01-28T18:22:25.868Z,-2.10
2023-01-28T18:24:52.340Z,-2.10
2023-01-28T18:27:20.565Z,-2.10
2023-01-28T18:29:47.742Z,-2.10
2023-01-28T18:32:14.252Z,-2.10
2023-01-28T18:34:40.761Z,-2.20
2023-01-28T18:37:08.524Z,-2.20
2023-01-28T18:39:37.867Z,-2.20
2023-01-28T18:42:04.536Z,-2.20
2023-01-28T18:44:31.217Z,-2.30
2023-01-28T18:46:57.740Z,-2.30
2023-01-28T18:49:24.210Z,-2.30
2023-01-28T18:51:50.755Z,-2.30
2023-01-28T18:54:17.225Z,-2.40
2023-01-28T18:56:43.787Z,-2.40
2023-01-28T18:59:10.377Z,-2.40
2023-01-28T19:01:36.864Z,-2.40
2023-01-28T19:04:03.413Z,-2.30
2023-01-28T19:06:29.977Z,-2.30
2023-01-28T19:08:56.461Z,-2.30
2023-01-28T19:11:22.992Z,-2.30
2023-01-28T19:13:49.523Z,-2.30
2023-01-28T19:16:16.048Z,-2.30
2023-01-28T19:18:42.621Z,-2.30
2023-01-28T19:21:09.091Z,-2.40
2023-01-28T19:23:49.247Z,-2.40
2023-01-28T19:26:20.828Z,-2.40
2023-01-28T19:28:48.145Z,-2.40
2023-01-28T19:31:14.725Z,-2.40
2023-01-28T19:33:41.315Z,-2.50
2023-01-28T19:36:07.781Z,-2.50
2023-01-28T19:38:34.277Z,-2.60
2023-01-28T19:41:00.740Z,-2.60
2023-01-28T19:43:27.271Z,-2.70
2023-01-28T19:45:54.130Z,-2.60
2023-01-28T19:48:20.630Z,-2.70
2023-01-28T19:50:47.101Z,-2.70
2023-01-28T19:53:13.648Z,-2.70
2023-01-28T19:55:40.122Z,-2.70
2023-01-28T19:58:06.608Z,-2.70
2023-01-28T20:00:33.070Z,-2.70
2023-01-28T20:02:59.773Z,-2.70
2023-01-28T20:05:26.235Z,-2.80
2023-01-28T20:07:52.733Z,-2.80
2023-01-28T20:10:19.227Z,-2.80
2023-01-28T20:12:45.739Z,-2.80
2023-01-28T20:15:12.291Z,-2.80
2023-01-28T20:17:38.852Z,-2.80
2023-01-28T20:20:05.450Z,-2.90
2023-01-28T20:22:33.572Z,-2.90
2023-01-28T20:25:00.037Z,-2.90
2023-01-28T20:27:26.533Z,-2.80
2023-01-28T20:29:53.309Z,-2.90
2023-01-28T20:32:20.686Z,-2.90
2023-01-28T20:34:47.311Z,-2.90
2023-01-28T20:37:13.856Z,-2.90
2023-01-28T20:39:40.323Z,-3.00
2023-01-28T20:42:09.241Z,-2.90
2023-01-28T20:44:35.816Z,-3.00
2023-01-28T20:47:02.355Z,-3.00
2023-01-28T20:49:28.939Z,-3.00
2023-01-28T20:51:55.611Z,-3.00
2023-01-28T20:54:22.153Z,-3.00
2023-01-28T20:56:48.624Z,-3.00
2023-01-28T20:59:15.164Z,-3.00
2023-01-28T21:01:41.717Z,-3.00
2023-01-28T21:04:10.617Z,-3.00
2023-01-28T21:06:37.252Z,-3.10
2023-01-28T21:09:03.764Z,-3.00
2023-01-28T21:11:30.373Z,-3.00
2023-01-28T21:13:56.895Z,-3.00
2023-01-28T21:16:23.388Z,-3.00
2023-01-28T21:18:50.277Z,-3.00
2023-01-28T21:21:16.823Z,-3.10
2023-01-28T21:23:43.357Z,-3.10
2023-01-28T21:26:09.823Z,-3.10
2023-01-28T21:28:36.434Z,-3.10
2023-01-28T21:31:02.927Z,-3.10
2023-01-28T21:33:29.452Z,-3.10
2023-01-28T21:35:55.961Z,-3.10
2023-01-28T21:38:22.470Z,-3.10
2023-01-28T21:40:48.948Z,-3.10
2023-01-28T21:43:15.442Z,-3.10
2023-01-28T21:45:41.953Z,-3.10
2023-01-28T21:48:08.467Z,-3.10
2023-01-28T21:50:54.913Z,-3.20
2023-01-28T21:53:21.429Z,-3.20
2023-01-28T21:55:49.316Z,-3.20
2023-01-28T21:58:34.824Z,-3.20
2023-01-28T22:01:01.311Z,-3.20
2023-01-28T22:03:27.784Z,-3.20
2023-01-28T22:05:54.284Z,-3.20
2023-01-28T22:08:20.791Z,-3.20
2023-01-28T22:10:47.264Z,-3.20
2023-01-28T22:13:13.745Z,-3.20
2023-01-28T22:15:40.881Z,-3.30
2023-01-28T22:18:07.419Z,-3.30
2023-01-28T22:20:33.936Z,-3.30
2023-01-28T22:23:00.619Z,-3.30
2023-01-28T22:25:27.085Z,-3.30
2023-01-28T22:27:53.613Z,-3.40
2023-01-28T22:30:20.087Z,-3.40
2023-01-28T22:32:47.346Z,-3.40
2023-01-28T22:35:13.836Z,-3.40
2023-01-28T22:37:40.299Z,-3.40
2023-01-28T22:40:06.795Z,-3.40
2023-01-28T22:42:33.268Z,-3.30
2023-01-28T22:44:59.780Z,-3.40
2023-01-28T22:47:26.255Z,-3.40
2023-01-28T22:49:52.754Z,-3.40
2023-01-28T22:52:19.233Z,-3.40
2023-01-28T22:54:47.732Z,-3.40
2023-01-28T22:57:14.286Z,-3.40
2023-01-28T22:59:43.745Z,-3.40
2023-01-28T23:02:12.450Z,-3.40
2023-01-28T23:04:38.991Z,-3.40
2023-01-28T23:07:05.515Z,-3.40
2023-01-28T23:09:32.040Z,-3.40
2023-01-28T23:11:58.539Z,-3.40
2023-01-28T23:14:43.908Z,-3.40
2023-01-28T23:17:29.135Z,-3.40
2023-01-28T23:20:14.646Z,-3.40
2023-01-28T23:22:59.815Z,-3.50
2023-01-28T23:25:26.621Z,-3.50
2023-01-28T23:27:53.103Z,-3.50
2023-01-28T23:30:24.952Z,-3.50
2023-01-28T23:32:51.427Z,-3.40
2023-01-28T23:35:19.020Z,-3.40
2023-01-28T23:37:45.603Z,-3.40
2023-01-28T23:40:12.096Z,-3.40
2023-01-28T23:42:38.585Z,-3.40
2023-01-28T23:45:05.099Z,-3.30
2023-01-28T23:47:31.547Z,-3.40
2023-01-28T23:49:58.048Z,-3.40
2023-01-28T23:52:26.037Z,-3.40
2023-01-28T23:54:52.555Z,-3.40
2023-01-28T23:57:19.081Z,-3.50
2023-01-28T23:59:45.584Z,-3.50
